Connelly, New York
Current Conditions -  °F | °C
As of 9:53 PM on Monday 22 Dec 2014 (Local Time) from KPOU Reporting Station
Overcast Overcast  
Wind Chill: 34°   Ceiling: 1400
Heat Index: 38°   Visibility: 7mi
Dew Point: 33°   Wind: 5mph
Humidity: 83%   Direction: 330°NNW
Pressure: 30.23"   Gusts: NA
Location:  41.91°N, 73.99°W
Report Text: KPOU 230253Z AUTO 33004KT 7SM OVC014 03/01 A3023 RMK AO2 SLP235 T00330006 55007 TSNO
Loading
Personal Weather Stations






























Interactive Weather Map New forecast layout! Learn more

10-Day Weather Forecast

Advertisements
Track Severe Weather on mobile